Cupsaw Lake, New Jersey
Current Conditions -  °F | °C
As of 7:53 PM on Monday 22 Dec 2014 (Local Time) from KCDW Reporting Station
Haze Haze  
Wind Chill: 40°   Ceiling: 500
Heat Index: 40°   Visibility: 2.5mi
Dew Point: 31°   Wind: 3mph
Humidity: 70%   Direction: 50°NE
Pressure: 30.22"   Gusts: NA
Location:  41.1036°N, 74.2801°W
Report Text: KCDW 230053Z AUTO 05003KT 2 1/2SM HZ OVC005 04/M01 A3022 RMK AO2 CIG 004V009 SLP242 T00441006 TSNO
Loading
Personal Weather Stations






























Interactive Weather Map New forecast layout! Learn more

10-Day Weather Forecast

Advertisements
Track Severe Weather on mobile